Time;durP1;ratioP1;P1;durP2;ratioP2;P2;SDS_P1;SDS_P2;PMS_P1;PMS_P2;Temp;Humidity;BMP_temperature;BMP_pressure;BME280_temperature;BME280_humidity;BME280_pressure;Samples;Min_cycle;Max_cycle;Signal;HPM_P1;HPM_P2
2023/12/03 00:00:46;;;;;;;7.73;5.30;;;2.00;99.90;;;;;;5041000;28;20181;-69
2023/12/03 00:03:12;;;;;;;7.57;5.57;;;2.10;99.90;;;;;;5074199;28;20177;-70
2023/12/03 00:05:41;;;;;;;7.73;5.63;;;2.10;99.90;;;;;;5038948;28;20236;-70
2023/12/03 00:08:08;;;;;;;8.47;5.63;;;2.10;99.90;;;;;;5041246;28;20181;-71
2023/12/03 00:10:35;;;;;;;7.57;6.13;;;2.10;99.90;;;;;;5037673;28;20216;-69
2023/12/03 00:13:03;;;;;;;9.80;6.90;;;2.10;99.90;;;;;;5040683;28;20176;-70
2023/12/03 00:15:29;;;;;;;9.60;6.70;;;2.10;99.90;;;;;;5035670;28;20178;-69
2023/12/03 00:17:54;;;;;;;9.27;6.40;;;2.10;99.90;;;;;;5052087;28;20266;-71
2023/12/03 00:20:20;;;;;;;9.40;6.43;;;2.10;99.90;;;;;;5038185;28;20201;-70
2023/12/03 00:22:46;;;;;;;8.63;5.60;;;2.30;99.90;;;;;;5041036;28;20189;-70
2023/12/03 00:25:14;;;;;;;7.60;5.57;;;2.10;99.90;;;;;;5041471;28;20181;-70
2023/12/03 00:27:45;;;;;;;7.90;5.70;;;2.10;99.90;;;;;;5041308;28;20192;-70
2023/12/03 00:30:11;;;;;;;7.93;5.50;;;2.10;99.90;;;;;;5054493;28;20243;-69
2023/12/03 00:32:36;;;;;;;9.40;6.30;;;2.10;99.90;;;;;;5042281;28;20256;-70
2023/12/03 00:35:05;;;;;;;8.47;5.83;;;2.10;99.90;;;;;;5045768;28;20259;-72
2023/12/03 00:37:35;;;;;;;10.17;6.20;;;2.10;99.90;;;;;;5022396;28;20209;-70
2023/12/03 00:40:04;;;;;;;8.00;5.80;;;2.20;99.90;;;;;;5038897;28;20192;-70
2023/12/03 00:42:32;;;;;;;9.10;6.33;;;2.20;99.90;;;;;;5051088;28;20273;-70
2023/12/03 00:44:57;;;;;;;7.33;5.40;;;2.20;99.90;;;;;;5038438;28;20193;-70
2023/12/03 00:47:25;;;;;;;8.03;5.87;;;2.20;99.90;;;;;;5023926;28;20220;-70
2023/12/03 00:49:51;;;;;;;7.90;5.67;;;2.20;99.90;;;;;;5040480;28;20205;-70
2023/12/03 00:52:19;;;;;;;9.27;6.30;;;2.20;99.90;;;;;;5039905;28;20184;-70
2023/12/03 00:54:45;;;;;;;8.17;5.83;;;2.20;99.90;;;;;;5040142;28;20205;-70
2023/12/03 00:57:13;;;;;;;8.93;6.10;;;2.20;99.90;;;;;;5040461;28;20193;-70
2023/12/03 00:59:41;;;;;;;8.57;6.27;;;2.20;99.90;;;;;;5034291;28;20269;-70
2023/12/03 01:02:07;;;;;;;8.73;6.10;;;2.10;99.90;;;;;;5043673;28;20186;-70
2023/12/03 01:04:35;;;;;;;9.10;6.47;;;2.10;99.90;;;;;;5068389;28;20187;-70
2023/12/03 01:07:02;;;;;;;8.73;6.03;;;2.10;99.90;;;;;;5051262;28;20189;-70
2023/12/03 01:09:30;;;;;;;9.03;6.10;;;2.10;99.90;;;;;;5032895;28;20205;-70
2023/12/03 01:11:59;;;;;;;8.23;5.77;;;2.10;99.90;;;;;;5037899;28;20250;-70
2023/12/03 01:14:29;;;;;;;7.83;5.60;;;2.10;99.90;;;;;;5041785;28;20178;-70
2023/12/03 01:16:55;;;;;;;8.17;5.83;;;2.10;99.90;;;;;;5073455;28;20208;-69
2023/12/03 01:19:22;;;;;;;8.07;5.17;;;2.00;99.90;;;;;;5036588;28;20185;-70
2023/12/03 01:21:48;;;;;;;7.70;5.47;;;2.00;99.90;;;;;;5028609;28;20263;-70
2023/12/03 01:24:16;;;;;;;9.57;6.00;;;2.00;99.90;;;;;;5039653;28;20178;-69
2023/12/03 01:26:42;;;;;;;8.27;5.37;;;2.00;99.90;;;;;;5057963;28;20181;-69
2023/12/03 01:29:09;;;;;;;8.07;5.83;;;2.00;99.90;;;;;;5043451;28;20216;-69
2023/12/03 01:31:36;;;;;;;7.67;5.50;;;2.00;99.90;;;;;;5046718;28;20177;-70
2023/12/03 01:34:02;;;;;;;7.90;5.40;;;2.00;99.90;;;;;;5073183;28;20244;-70
2023/12/03 01:36:27;;;;;;;8.77;5.63;;;2.00;99.90;;;;;;5039595;28;20225;-70
2023/12/03 01:38:53;;;;;;;7.67;5.53;;;2.00;99.90;;;;;;5039052;28;20235;-69
2023/12/03 01:41:21;;;;;;;7.40;5.30;;;2.00;99.90;;;;;;5037468;28;20202;-69
2023/12/03 01:43:49;;;;;;;6.70;5.20;;;2.00;99.90;;;;;;5045575;28;20185;-69
2023/12/03 01:46:19;;;;;;;8.57;5.33;;;2.00;99.90;;;;;;5044265;28;20191;-69
2023/12/03 01:48:48;;;;;;;7.90;5.60;;;2.00;99.90;;;;;;5039884;28;20235;-69
2023/12/03 01:51:16;;;;;;;7.43;5.73;;;2.00;99.90;;;;;;5039092;28;20178;-69
2023/12/03 01:53:42;;;;;;;7.63;5.40;;;1.90;99.90;;;;;;5072491;28;20182;-69
2023/12/03 01:56:13;;;;;;;8.90;5.93;;;1.90;99.90;;;;;;5038710;28;20169;-69
2023/12/03 01:58:42;;;;;;;6.40;4.93;;;1.90;99.90;;;;;;5040200;28;20272;-69
2023/12/03 02:01:08;;;;;;;9.17;6.27;;;1.90;99.90;;;;;;5039565;28;20197;-69
2023/12/03 02:03:36;;;;;;;6.93;5.20;;;1.90;99.90;;;;;;5057411;28;20176;-69
2023/12/03 02:06:11;;;;;;;7.77;5.40;;;1.90;99.90;;;;;;5038608;28;20169;-70
2023/12/03 02:08:37;;;;;;;8.30;5.60;;;1.90;99.90;;;;;;5052619;28;20570;-70
2023/12/03 02:11:04;;;;;;;7.43;5.20;;;1.80;99.90;;;;;;5042559;28;20184;-69
2023/12/03 02:13:32;;;;;;;7.77;5.57;;;1.80;99.90;;;;;;5040696;28;20284;-69
2023/12/03 02:15:58;;;;;;;7.00;4.97;;;1.80;99.90;;;;;;5038755;28;20184;-69
2023/12/03 02:18:26;;;;;;;8.03;5.80;;;1.80;99.90;;;;;;5033648;28;20177;-69
2023/12/03 02:20:54;;;;;;;7.53;5.30;;;1.80;99.90;;;;;;5043004;28;20205;-69
2023/12/03 02:23:19;;;;;;;7.67;5.60;;;1.80;99.90;;;;;;5056308;28;20180;-69
2023/12/03 02:25:46;;;;;;;7.70;5.40;;;1.70;99.90;;;;;;5046658;28;20177;-70
2023/12/03 02:28:16;;;;;;;7.83;5.60;;;1.70;99.90;;;;;;5036637;28;20268;-69
2023/12/03 02:30:42;;;;;;;7.23;5.13;;;1.70;99.90;;;;;;5021948;28;20244;-70
2023/12/03 02:33:08;;;;;;;7.40;5.23;;;1.70;99.90;;;;;;5037162;28;20217;-70
2023/12/03 02:35:33;;;;;;;7.97;5.17;;;1.70;99.90;;;;;;5034380;28;20178;-70
2023/12/03 02:38:01;;;;;;;7.63;5.33;;;1.70;99.90;;;;;;5033656;28;20203;-70
2023/12/03 02:40:31;;;;;;;7.43;5.20;;;1.70;99.90;;;;;;5054716;28;20197;-70
2023/12/03 02:42:57;;;;;;;7.80;5.00;;;1.70;99.90;;;;;;5055590;28;20177;-70
2023/12/03 02:45:25;;;;;;;7.50;4.97;;;1.70;99.90;;;;;;5045575;28;20238;-70
2023/12/03 02:47:50;;;;;;;6.67;4.87;;;1.80;99.90;;;;;;5038403;28;20254;-70
2023/12/03 02:50:16;;;;;;;7.17;4.80;;;1.80;99.90;;;;;;5038744;28;20260;-70
2023/12/03 02:52:46;;;;;;;7.70;5.33;;;1.80;99.90;;;;;;5044468;28;20197;-70
2023/12/03 02:55:15;;;;;;;6.87;4.40;;;1.80;99.90;;;;;;5058802;28;20172;-70
2023/12/03 02:57:40;;;;;;;6.83;4.77;;;1.80;99.90;;;;;;5058707;28;20225;-70
2023/12/03 03:00:06;;;;;;;7.07;4.53;;;1.70;99.90;;;;;;5058939;28;20168;-70
2023/12/03 03:02:33;;;;;;;7.50;5.00;;;1.70;99.90;;;;;;5055199;28;20208;-70
2023/12/03 03:04:58;;;;;;;7.83;5.30;;;1.70;99.90;;;;;;5033954;28;20178;-70
2023/12/03 03:07:26;;;;;;;7.43;4.97;;;1.70;99.90;;;;;;5018717;28;20193;-70
2023/12/03 03:09:52;;;;;;;8.20;4.90;;;1.60;99.90;;;;;;5018803;28;20198;-70
2023/12/03 03:12:17;;;;;;;6.40;4.50;;;1.60;99.90;;;;;;5032398;28;20189;-70
2023/12/03 03:14:43;;;;;;;7.27;4.87;;;1.70;99.90;;;;;;5038622;28;20257;-70
2023/12/03 03:17:11;;;;;;;7.77;4.80;;;1.60;99.90;;;;;;5038162;28;20196;-70
2023/12/03 03:19:37;;;;;;;8.23;5.47;;;1.50;99.90;;;;;;5038666;28;20209;-69
2023/12/03 03:22:05;;;;;;;8.20;5.23;;;1.50;99.90;;;;;;5037970;28;20188;-69
2023/12/03 03:24:33;;;;;;;7.47;4.90;;;1.50;99.90;;;;;;5033072;28;20170;-69
2023/12/03 03:26:59;;;;;;;6.97;4.70;;;1.50;99.90;;;;;;5038236;28;20173;-69
2023/12/03 03:29:27;;;;;;;7.17;4.87;;;1.40;99.90;;;;;;5039023;28;20254;-70
2023/12/03 03:31:55;;;;;;;7.73;4.83;;;1.40;99.90;;;;;;5045438;28;20228;-70
2023/12/03 03:34:21;;;;;;;6.43;4.30;;;1.40;99.90;;;;;;5071594;28;20226;-69
2023/12/03 03:36:46;;;;;;;7.77;5.20;;;1.40;99.90;;;;;;5244505;23;20255;-69
2023/12/03 03:39:12;;;;;;;7.50;5.03;;;1.40;99.90;;;;;;5061474;28;20266;-69
2023/12/03 03:41:37;;;;;;;7.00;4.67;;;1.40;99.90;;;;;;5072622;28;20195;-68
2023/12/03 03:44:03;;;;;;;6.83;4.70;;;1.30;99.90;;;;;;5074048;28;20215;-69
2023/12/03 03:46:31;;;;;;;7.43;4.80;;;1.30;99.90;;;;;;5068537;28;20177;-69
2023/12/03 03:48:57;;;;;;;7.50;4.90;;;1.30;99.90;;;;;;5073705;28;20283;-68
2023/12/03 03:51:23;;;;;;;7.17;5.07;;;1.30;99.90;;;;;;5073268;28;20220;-69
2023/12/03 03:53:51;;;;;;;9.57;5.83;;;1.30;99.90;;;;;;5079227;28;20177;-68
2023/12/03 03:56:17;;;;;;;8.17;5.60;;;1.30;99.90;;;;;;5065056;28;20187;-68
2023/12/03 03:58:45;;;;;;;9.17;5.90;;;1.30;99.90;;;;;;5075964;28;20177;-68
2023/12/03 04:01:10;;;;;;;10.03;6.23;;;1.30;99.90;;;;;;5071918;28;20176;-68
2023/12/03 04:03:38;;;;;;;9.63;6.33;;;1.30;99.90;;;;;;5062643;28;20178;-67
2023/12/03 04:06:04;;;;;;;10.93;6.73;;;1.30;99.90;;;;;;5086009;28;20185;-68
2023/12/03 04:08:30;;;;;;;10.57;7.30;;;1.20;99.90;;;;;;5073385;28;20168;-68
2023/12/03 04:10:56;;;;;;;10.30;6.83;;;1.20;99.90;;;;;;5077852;28;20223;-68
2023/12/03 04:13:27;;;;;;;10.17;6.83;;;1.20;99.90;;;;;;5089268;28;20180;-68
2023/12/03 04:15:52;;;;;;;11.97;7.13;;;1.20;99.90;;;;;;5074511;28;20192;-68
2023/12/03 04:18:20;;;;;;;11.63;7.43;;;1.20;99.90;;;;;;5073312;28;20180;-68
2023/12/03 04:20:46;;;;;;;10.60;6.60;;;1.20;99.90;;;;;;5070659;28;20178;-68
2023/12/03 04:23:13;;;;;;;9.37;6.30;;;1.10;99.90;;;;;;5058432;28;20177;-68
2023/12/03 04:25:39;;;;;;;8.70;5.67;;;1.10;99.90;;;;;;5082923;28;20173;-68
2023/12/03 04:28:05;;;;;;;10.40;6.03;;;1.10;99.90;;;;;;5072550;28;20172;-68
2023/12/03 04:30:31;;;;;;;9.67;6.47;;;1.10;99.90;;;;;;5077820;28;20297;-68
2023/12/03 04:32:59;;;;;;;11.00;6.73;;;1.10;99.90;;;;;;5086494;28;20219;-67
2023/12/03 04:35:26;;;;;;;9.27;6.37;;;1.10;99.90;;;;;;5057972;28;20246;-69
2023/12/03 04:37:54;;;;;;;11.50;6.53;;;1.10;99.90;;;;;;5086686;28;20220;-68
2023/12/03 04:40:22;;;;;;;9.80;5.87;;;1.20;99.90;;;;;;5094027;28;20271;-68
2023/12/03 04:42:48;;;;;;;10.77;6.40;;;1.20;99.90;;;;;;5077382;28;20199;-68
2023/12/03 04:45:15;;;;;;;9.67;6.17;;;1.20;99.90;;;;;;5075457;28;20279;-68
2023/12/03 04:47:43;;;;;;;11.07;6.43;;;1.20;99.90;;;;;;5086859;28;20250;-69
2023/12/03 04:50:11;;;;;;;10.90;6.50;;;1.20;99.90;;;;;;5075672;28;20209;-68
2023/12/03 04:52:37;;;;;;;9.87;6.10;;;1.30;99.90;;;;;;5087467;28;20177;-68
2023/12/03 04:55:03;;;;;;;9.97;6.07;;;1.20;99.90;;;;;;5077371;28;20203;-68
2023/12/03 04:57:28;;;;;;;10.40;7.20;;;1.20;99.90;;;;;;5076120;28;20238;-68
2023/12/03 04:59:54;;;;;;;11.60;7.00;;;1.30;99.90;;;;;;5074781;28;20181;-67
2023/12/03 05:02:24;;;;;;;9.63;5.83;;;1.20;99.90;;;;;;5076908;28;20196;-68
2023/12/03 05:04:50;;;;;;;12.23;7.37;;;1.30;99.90;;;;;;5075609;28;20189;-67
2023/12/03 05:07:18;;;;;;;8.70;6.37;;;1.30;99.90;;;;;;5076386;28;20181;-68
2023/12/03 05:09:43;;;;;;;9.80;6.03;;;1.30;99.90;;;;;;5084445;28;20212;-68
2023/12/03 05:12:13;;;;;;;10.00;5.83;;;1.30;99.90;;;;;;5072949;28;20275;-68
2023/12/03 05:14:39;;;;;;;9.27;5.90;;;1.30;99.90;;;;;;5075762;28;20180;-68
2023/12/03 05:17:05;;;;;;;10.47;6.30;;;1.30;99.90;;;;;;5075741;28;20215;-68
2023/12/03 05:19:31;;;;;;;10.00;6.30;;;1.30;99.90;;;;;;5076398;28;20200;-68
2023/12/03 05:21:59;;;;;;;12.23;6.60;;;1.30;99.90;;;;;;5076458;28;20216;-69
2023/12/03 05:24:24;;;;;;;8.27;5.37;;;1.30;99.90;;;;;;5075960;28;20180;-69
2023/12/03 05:26:50;;;;;;;9.90;6.17;;;1.30;99.90;;;;;;5076110;28;20184;-69
2023/12/03 05:29:18;;;;;;;9.43;5.93;;;1.40;99.90;;;;;;5072273;28;20208;-69
2023/12/03 05:31:48;;;;;;;8.30;5.57;;;1.40;99.90;;;;;;5075286;28;20177;-69
2023/12/03 05:34:16;;;;;;;7.67;5.47;;;1.30;99.90;;;;;;5075321;28;20177;-68
2023/12/03 05:36:42;;;;;;;10.07;5.90;;;1.30;99.90;;;;;;5075515;28;20200;-69
2023/12/03 05:39:07;;;;;;;11.10;7.00;;;1.30;99.90;;;;;;5084234;28;20188;-70
2023/12/03 05:41:39;;;;;;;10.97;6.47;;;1.40;99.90;;;;;;5073273;28;20242;-69
2023/12/03 05:44:05;;;;;;;11.57;7.30;;;1.30;99.90;;;;;;5075943;28;20205;-69
2023/12/03 05:46:31;;;;;;;9.53;6.10;;;1.30;99.90;;;;;;5075610;28;20188;-69
2023/12/03 05:48:58;;;;;;;8.53;5.87;;;1.30;99.90;;;;;;5075856;28;20169;-69
2023/12/03 05:51:26;;;;;;;9.27;5.87;;;1.30;99.90;;;;;;5079502;28;20173;-69
2023/12/03 05:53:52;;;;;;;9.23;5.63;;;1.30;99.90;;;;;;5066605;28;20189;-70
2023/12/03 05:56:17;;;;;;;9.17;5.87;;;1.30;99.90;;;;;;5075946;28;20168;-69
2023/12/03 05:58:45;;;;;;;11.27;6.17;;;1.20;99.90;;;;;;5074486;28;20169;-70
2023/12/03 06:01:23;;;;;;;8.40;5.70;;;1.20;99.90;;;;;;5083201;28;20172;-70
2023/12/03 06:03:51;;;;;;;8.63;5.70;;;1.20;99.90;;;;;;5074560;28;20291;-69
2023/12/03 06:06:22;;;;;;;9.40;6.30;;;1.20;99.90;;;;;;5089871;28;20176;-70
2023/12/03 06:08:48;;;;;;;8.77;5.87;;;1.20;99.90;;;;;;5070603;28;20183;-70
2023/12/03 06:11:16;;;;;;;8.80;5.57;;;1.20;99.90;;;;;;5075460;28;20203;-68
2023/12/03 06:13:42;;;;;;;8.37;5.37;;;1.20;99.90;;;;;;5075131;28;20192;-69
2023/12/03 06:16:12;;;;;;;9.03;5.50;;;1.20;99.90;;;;;;5075430;28;20168;-69
2023/12/03 06:18:38;;;;;;;7.20;4.97;;;1.20;99.90;;;;;;5075743;28;20248;-69
2023/12/03 06:21:07;;;;;;;8.00;5.00;;;1.20;99.90;;;;;;5075352;28;20226;-69
2023/12/03 06:23:35;;;;;;;9.17;5.17;;;1.20;99.90;;;;;;5083384;28;20212;-70
2023/12/03 06:26:01;;;;;;;7.30;4.47;;;1.20;99.90;;;;;;5083313;28;20185;-70
2023/12/03 06:28:27;;;;;;;9.73;5.27;;;1.20;99.90;;;;;;5073997;28;20183;-69
2023/12/03 06:30:54;;;;;;;7.53;4.90;;;1.20;99.90;;;;;;5075597;28;20230;-69
2023/12/03 06:33:24;;;;;;;10.40;5.90;;;1.20;99.90;;;;;;5074629;28;20268;-69
2023/12/03 06:35:53;;;;;;;8.63;4.93;;;1.20;99.90;;;;;;5071041;28;20181;-69
2023/12/03 06:38:22;;;;;;;7.23;4.87;;;1.20;99.90;;;;;;5075401;28;20198;-70
2023/12/03 06:40:47;;;;;;;9.33;5.17;;;1.30;99.90;;;;;;5074025;28;20181;-69
2023/12/03 06:43:18;;;;;;;9.00;5.53;;;1.30;99.90;;;;;;5076839;28;20214;-69
2023/12/03 06:45:44;;;;;;;10.10;6.50;;;1.30;99.90;;;;;;5074657;28;20188;-69
2023/12/03 06:48:11;;;;;;;9.57;5.83;;;1.30;99.90;;;;;;5073894;28;20210;-70
2023/12/03 06:50:39;;;;;;;11.70;7.00;;;1.30;99.90;;;;;;5074011;28;20232;-70
2023/12/03 06:53:05;;;;;;;10.67;6.77;;;1.30;99.90;;;;;;5066290;28;20246;-70
2023/12/03 06:55:33;;;;;;;10.70;6.83;;;1.40;99.90;;;;;;5068834;28;20176;-69
2023/12/03 06:57:59;;;;;;;10.07;6.13;;;1.30;99.90;;;;;;5076180;28;20176;-69
2023/12/03 07:00:27;;;;;;;13.33;7.57;;;1.30;99.90;;;;;;5074389;28;20180;-70
2023/12/03 07:02:58;;;;;;;12.17;7.47;;;1.30;99.90;;;;;;5069895;28;20205;-70
2023/12/03 07:05:28;;;;;;;10.73;6.90;;;1.30;99.90;;;;;;5074651;28;20184;-70
2023/12/03 07:07:59;;;;;;;11.20;6.37;;;1.30;99.90;;;;;;5073261;28;20278;-68
2023/12/03 07:10:24;;;;;;;10.80;6.50;;;1.30;99.90;;;;;;5071586;28;20363;-68
2023/12/03 07:12:50;;;;;;;10.27;6.57;;;1.30;99.90;;;;;;5074703;28;20176;-68
2023/12/03 07:15:15;;;;;;;10.70;6.57;;;1.30;99.90;;;;;;5073413;28;20173;-68
2023/12/03 07:17:41;;;;;;;11.60;6.70;;;1.30;99.90;;;;;;5072727;28;20267;-68
2023/12/03 07:20:11;;;;;;;11.20;7.37;;;1.30;99.90;;;;;;5072550;28;20191;-69
2023/12/03 07:22:39;;;;;;;13.87;7.80;;;1.30;99.90;;;;;;5082810;28;20200;-68
2023/12/03 07:25:05;;;;;;;12.00;7.30;;;1.30;99.90;;;;;;5091368;28;20191;-68
2023/12/03 07:27:33;;;;;;;10.63;6.60;;;1.30;99.90;;;;;;5074825;28;20192;-68
2023/12/03 07:30:00;;;;;;;11.40;7.00;;;1.30;99.90;;;;;;5070923;28;20287;-68
2023/12/03 07:32:29;;;;;;;9.30;5.83;;;1.30;99.90;;;;;;5071739;28;20177;-68
2023/12/03 07:34:57;;;;;;;10.47;6.17;;;1.30;99.90;;;;;;5074063;28;20172;-68
2023/12/03 07:37:25;;;;;;;11.30;6.20;;;1.40;99.90;;;;;;5074079;28;20192;-68
2023/12/03 07:39:53;;;;;;;8.43;5.47;;;1.40;99.90;;;;;;5070856;28;20188;-68
2023/12/03 07:42:21;;;;;;;9.77;6.03;;;1.40;99.90;;;;;;5072080;28;20204;-68
2023/12/03 07:44:46;;;;;;;10.60;6.30;;;1.40;99.90;;;;;;5061594;28;20184;-68
2023/12/03 07:47:12;;;;;;;8.67;5.43;;;1.40;99.90;;;;;;5080273;28;20229;-68
2023/12/03 07:49:37;;;;;;;9.67;5.90;;;1.50;99.90;;;;;;5074007;28;20257;-68
2023/12/03 07:52:03;;;;;;;10.37;5.63;;;1.50;99.90;;;;;;5093554;28;20173;-69
2023/12/03 07:54:31;;;;;;;11.30;6.27;;;1.50;99.90;;;;;;5074643;28;20191;-69
2023/12/03 07:56:57;;;;;;;9.27;5.50;;;1.60;99.90;;;;;;5070726;28;20204;-68
2023/12/03 07:59:22;;;;;;;10.07;6.17;;;1.60;99.90;;;;;;5061391;28;20181;-69
2023/12/03 08:01:50;;;;;;;11.63;6.73;;;1.60;99.90;;;;;;5073836;28;20200;-68
2023/12/03 08:04:16;;;;;;;8.77;5.20;;;1.60;99.90;;;;;;5076173;28;20173;-69
2023/12/03 08:06:44;;;;;;;9.60;5.87;;;1.60;99.90;;;;;;5078046;28;20176;-68
2023/12/03 08:09:10;;;;;;;9.57;5.80;;;1.60;99.90;;;;;;5076899;28;20205;-69
2023/12/03 08:11:39;;;;;;;8.37;5.37;;;1.60;99.90;;;;;;5078490;28;20169;-68
2023/12/03 08:14:07;;;;;;;8.60;5.40;;;1.60;99.90;;;;;;5078220;28;20184;-69
2023/12/03 08:16:33;;;;;;;8.80;5.77;;;1.70;99.90;;;;;;5079341;28;20173;-69
2023/12/03 08:19:00;;;;;;;11.43;6.63;;;1.70;99.90;;;;;;5078470;28;20169;-69
2023/12/03 08:21:26;;;;;;;9.80;6.10;;;1.70;99.90;;;;;;5077524;28;20196;-68
2023/12/03 08:23:52;;;;;;;9.30;5.60;;;1.70;99.90;;;;;;5073979;28;20181;-69
2023/12/03 08:26:17;;;;;;;9.33;5.70;;;1.70;99.90;;;;;;5078398;28;20180;-68
2023/12/03 08:28:45;;;;;;;9.37;5.77;;;1.70;99.90;;;;;;5075084;28;20224;-68
2023/12/03 08:31:15;;;;;;;8.67;5.33;;;1.70;99.90;;;;;;5074509;28;20204;-68
2023/12/03 08:33:41;;;;;;;8.30;5.33;;;1.70;99.90;;;;;;5065804;28;20197;-68
2023/12/03 08:36:08;;;;;;;10.77;6.13;;;1.70;99.90;;;;;;5076815;28;20176;-69
2023/12/03 08:38:38;;;;;;;10.97;5.83;;;1.70;99.90;;;;;;5078104;28;20177;-69
2023/12/03 08:41:07;;;;;;;8.70;5.30;;;1.70;99.90;;;;;;5058212;28;20327;-69
2023/12/03 08:43:32;;;;;;;8.37;5.27;;;1.70;99.90;;;;;;5066863;28;20178;-69
2023/12/03 08:46:00;;;;;;;8.60;5.27;;;1.70;99.90;;;;;;5077412;28;20165;-75
2023/12/03 08:48:31;;;;;;;10.73;6.37;;;1.70;99.90;;;;;;5072667;28;20173;-74
2023/12/03 08:50:56;;;;;;;10.60;6.10;;;1.70;99.90;;;;;;5070499;28;20192;-74
2023/12/03 08:53:24;;;;;;;8.47;5.50;;;1.80;99.90;;;;;;5088404;28;20207;-75
2023/12/03 08:55:49;;;;;;;10.80;6.33;;;2.00;99.90;;;;;;5081144;28;20415;-72
2023/12/03 08:58:15;;;;;;;8.77;5.37;;;2.30;99.90;;;;;;5075634;28;20183;-75
2023/12/03 09:00:41;;;;;;;12.03;6.83;;;2.60;99.90;;;;;;5076607;28;20204;-75
2023/12/03 09:03:06;;;;;;;10.37;6.07;;;2.80;99.90;;;;;;5077075;28;20180;-74
2023/12/03 09:05:32;;;;;;;9.67;6.30;;;3.00;99.90;;;;;;5077189;28;20427;-75
2023/12/03 09:07:57;;;;;;;9.70;6.07;;;3.00;99.90;;;;;;5079874;28;20267;-69
2023/12/03 09:10:23;;;;;;;9.87;6.40;;;3.10;99.90;;;;;;5082266;28;20200;-69
2023/12/03 09:12:54;;;;;;;11.73;6.83;;;3.10;99.90;;;;;;5077401;28;20264;-69
2023/12/03 09:15:21;;;;;;;10.57;6.63;;;3.20;99.90;;;;;;5074014;28;20191;-69
2023/12/03 09:17:46;;;;;;;11.60;7.33;;;3.20;99.90;;;;;;5074965;28;20180;-69
2023/12/03 09:20:14;;;;;;;10.47;6.17;;;3.20;99.90;;;;;;5071594;28;20219;-69
2023/12/03 09:22:42;;;;;;;10.10;6.70;;;3.30;99.90;;;;;;5075349;28;20189;-70
2023/12/03 09:25:08;;;;;;;11.50;7.70;;;3.40;99.90;;;;;;5078967;28;20188;-70
2023/12/03 09:27:34;;;;;;;11.70;7.17;;;3.50;99.90;;;;;;5075281;28;20204;-69
2023/12/03 09:30:01;;;;;;;10.27;6.80;;;3.50;99.90;;;;;;5081191;28;20188;-69
2023/12/03 09:32:27;;;;;;;11.20;7.50;;;3.70;99.90;;;;;;5076870;28;20180;-70
2023/12/03 09:34:55;;;;;;;11.47;7.07;;;3.80;99.90;;;;;;5078648;28;20210;-71
2023/12/03 09:37:23;;;;;;;11.07;7.20;;;3.90;99.90;;;;;;5063401;28;20255;-69
2023/12/03 09:39:49;;;;;;;12.33;7.43;;;4.00;99.90;;;;;;5075799;28;20291;-70
2023/12/03 09:42:20;;;;;;;11.47;7.23;;;4.10;99.90;;;;;;5081362;28;20244;-70
2023/12/03 09:45:04;;;;;;;13.13;7.90;;;4.20;99.90;;;;;;5089789;28;20403;-72
2023/12/03 09:47:37;;;;;;;11.73;7.70;;;4.20;99.90;;;;;;5075827;28;20204;-70
2023/12/03 09:50:08;;;;;;;10.40;7.10;;;4.30;99.90;;;;;;5076594;28;20253;-70
2023/12/03 09:52:35;;;;;;;14.43;9.30;;;4.30;99.90;;;;;;5078752;28;20284;-71
2023/12/03 09:55:05;;;;;;;11.53;7.47;;;4.30;99.90;;;;;;5074594;28;20193;-71
2023/12/03 09:57:34;;;;;;;11.30;7.57;;;4.30;99.90;;;;;;5087878;28;20177;-70
2023/12/03 10:00:04;;;;;;;12.63;7.73;;;4.40;99.90;;;;;;5075735;28;20285;-70
2023/12/03 10:02:31;;;;;;;11.10;7.97;;;4.40;99.90;;;;;;5075559;28;20197;-69
2023/12/03 10:04:57;;;;;;;13.13;8.50;;;4.50;99.90;;;;;;5076426;28;20188;-69
2023/12/03 10:07:31;;;;;;;14.07;9.03;;;4.50;99.90;;;;;;5075648;28;20272;-69
2023/12/03 10:10:00;;;;;;;12.67;8.43;;;4.40;99.90;;;;;;5076080;28;20208;-69
2023/12/03 10:12:35;;;;;;;14.23;9.40;;;4.40;99.90;;;;;;5073931;28;20201;-70
2023/12/03 10:15:00;;;;;;;14.03;9.57;;;4.30;99.90;;;;;;5085897;28;20222;-69
2023/12/03 10:17:27;;;;;;;13.23;8.53;;;4.20;99.90;;;;;;5076189;28;20181;-70
2023/12/03 10:19:55;;;;;;;14.87;9.17;;;4.20;99.90;;;;;;5075330;28;20251;-68
2023/12/03 10:22:31;;;;;;;12.40;8.40;;;4.20;99.90;;;;;;5058180;28;20173;-69
2023/12/03 10:24:57;;;;;;;11.43;7.83;;;4.10;99.90;;;;;;5075208;28;20200;-69
2023/12/03 10:27:30;;;;;;;12.53;8.47;;;4.10;99.90;;;;;;5074335;28;20177;-69
2023/12/03 10:29:58;;;;;;;14.30;9.00;;;4.20;99.90;;;;;;5078488;28;20196;-69
2023/12/03 10:32:26;;;;;;;13.87;9.20;;;4.20;99.90;;;;;;5075601;28;20192;-69
2023/12/03 10:34:54;;;;;;;12.73;8.50;;;4.20;99.90;;;;;;5068422;28;20173;-69
2023/12/03 10:37:23;;;;;;;15.40;9.57;;;4.20;99.90;;;;;;5075270;28;20188;-68
2023/12/03 10:39:48;;;;;;;12.20;8.50;;;4.20;99.90;;;;;;5095033;28;20191;-68
2023/12/03 10:42:14;;;;;;;12.40;8.60;;;4.20;99.90;;;;;;5089047;28;20251;-68
2023/12/03 10:44:42;;;;;;;15.13;9.60;;;4.20;99.90;;;;;;5071644;28;20177;-67
2023/12/03 10:47:07;;;;;;;11.53;8.10;;;4.20;99.90;;;;;;5074641;28;20457;-69
2023/12/03 10:49:35;;;;;;;12.00;8.27;;;4.20;99.90;;;;;;5075177;28;20534;-69
2023/12/03 10:52:02;;;;;;;12.50;7.67;;;4.20;99.90;;;;;;5061304;28;20204;-68
2023/12/03 10:54:30;;;;;;;12.27;7.77;;;4.20;99.90;;;;;;5089525;28;20269;-67
2023/12/03 10:56:56;;;;;;;11.80;7.77;;;4.10;99.90;;;;;;5091467;28;20164;-69
2023/12/03 10:59:27;;;;;;;10.23;7.10;;;4.20;99.90;;;;;;5073849;28;20272;-68
2023/12/03 11:02:00;;;;;;;11.93;7.40;;;4.20;99.90;;;;;;5082071;28;20201;-70
2023/12/03 11:04:51;;;;;;;10.80;6.87;;;4.20;99.90;;;;;;5066984;28;20186;-67
2023/12/03 11:07:21;;;;;;;9.83;6.73;;;4.20;99.90;;;;;;5057506;28;20258;-68
2023/12/03 11:09:48;;;;;;;9.13;6.20;;;4.10;99.90;;;;;;5074443;28;20250;-68
2023/12/03 11:12:15;;;;;;;9.10;6.13;;;4.10;99.90;;;;;;5074486;28;20168;-68
2023/12/03 11:14:43;;;;;;;8.40;5.67;;;4.10;99.90;;;;;;5074707;28;20260;-69
2023/12/03 11:17:35;;;;;;;8.67;5.67;;;4.10;99.90;;;;;;5074294;28;20172;-68
2023/12/03 11:20:14;;;;;;;8.93;5.83;;;4.10;99.90;;;;;;5087083;28;20208;-67
2023/12/03 11:23:05;;;;;;;7.83;5.07;;;4.10;99.90;;;;;;5073796;28;20241;-68
2023/12/03 11:25:40;;;;;;;8.33;5.87;;;4.10;99.90;;;;;;5074701;28;20161;-70
2023/12/03 11:28:11;;;;;;;8.53;5.67;;;4.10;99.90;;;;;;5074333;28;20156;-68
2023/12/03 11:30:42;;;;;;;7.27;5.03;;;4.10;99.90;;;;;;5074209;28;20201;-68
2023/12/03 11:33:13;;;;;;;7.33;5.13;;;4.10;99.90;;;;;;5090764;28;20231;-68
2023/12/03 11:35:40;;;;;;;7.30;4.70;;;4.20;99.90;;;;;;5090690;28;20175;-68
2023/12/03 11:38:20;;;;;;;8.30;5.60;;;4.20;99.90;;;;;;5073840;28;20191;-69
2023/12/03 11:40:45;;;;;;;7.83;5.50;;;4.30;99.90;;;;;;5059094;28;20200;-69
2023/12/03 11:43:26;;;;;;;8.23;5.70;;;4.40;99.90;;;;;;5071186;28;20188;-68
2023/12/03 11:45:52;;;;;;;7.90;5.30;;;4.40;99.90;;;;;;5071381;28;20184;-71
2023/12/03 11:48:19;;;;;;;8.80;5.80;;;4.40;99.90;;;;;;5074507;28;20211;-68
2023/12/03 11:50:50;;;;;;;6.80;4.87;;;4.40;99.90;;;;;;5074459;28;20297;-69
2023/12/03 11:53:20;;;;;;;7.67;5.40;;;4.40;99.90;;;;;;5060004;28;20191;-69
2023/12/03 11:55:48;;;;;;;7.47;5.27;;;4.40;99.90;;;;;;5074459;28;20203;-69
2023/12/03 11:58:14;;;;;;;7.10;5.30;;;4.50;99.90;;;;;;5076221;28;20181;-69
2023/12/03 12:00:45;;;;;;;8.00;5.37;;;4.70;99.90;;;;;;5075563;28;20271;-69
2023/12/03 12:03:13;;;;;;;7.90;5.50;;;4.70;99.90;;;;;;5070953;28;20181;-68
2023/12/03 12:05:45;;;;;;;8.63;5.40;;;4.90;99.90;;;;;;5054928;28;20166;-69
2023/12/03 12:08:18;;;;;;;9.17;5.93;;;5.00;99.90;;;;;;5071879;28;20197;-69
2023/12/03 12:10:43;;;;;;;8.43;5.67;;;5.20;99.90;;;;;;5090192;28;20196;-69
2023/12/03 12:13:12;;;;;;;8.13;5.80;;;5.50;99.90;;;;;;5073731;28;20226;-69
2023/12/03 12:15:41;;;;;;;9.40;6.33;;;5.90;99.90;;;;;;5074185;28;20212;-68
2023/12/03 12:18:07;;;;;;;9.80;6.50;;;6.10;99.90;;;;;;5084612;28;20181;-69
2023/12/03 12:20:37;;;;;;;9.60;6.47;;;6.30;99.90;;;;;;5077687;28;20189;-69
2023/12/03 12:23:03;;;;;;;9.20;6.60;;;6.60;99.90;;;;;;5073757;28;20252;-68
2023/12/03 12:25:35;;;;;;;9.37;6.40;;;6.80;99.90;;;;;;5087442;28;20286;-69
2023/12/03 12:28:02;;;;;;;10.20;6.73;;;7.00;99.90;;;;;;5073849;28;20209;-68
2023/12/03 12:30:30;;;;;;;9.07;6.57;;;7.20;99.90;;;;;;5073871;28;20192;-68
2023/12/03 12:32:59;;;;;;;8.20;6.00;;;7.40;99.90;;;;;;5073255;28;20187;-68
2023/12/03 12:35:27;;;;;;;9.53;6.77;;;7.50;99.90;;;;;;5073846;28;20250;-68
2023/12/03 12:38:06;;;;;;;9.87;6.77;;;7.70;99.90;;;;;;5070608;28;20177;-68
2023/12/03 12:40:32;;;;;;;10.60;7.27;;;7.70;99.90;;;;;;5070606;28;20180;-68
2023/12/03 12:43:11;;;;;;;8.23;5.83;;;7.60;99.90;;;;;;5070522;28;20269;-69
2023/12/03 12:45:39;;;;;;;9.47;6.10;;;7.60;99.90;;;;;;5074039;28;20439;-69
2023/12/03 12:48:33;;;;;;;7.97;6.20;;;7.60;99.90;;;;;;5072943;28;20204;-68
2023/12/03 12:50:58;;;;;;;8.73;6.50;;;7.50;99.90;;;;;;5059076;28;20237;-68
2023/12/03 12:53:44;;;;;;;8.00;5.57;;;7.50;99.90;;;;;;5077561;28;20164;-69
2023/12/03 12:56:10;;;;;;;8.53;6.23;;;7.60;99.90;;;;;;5076320;28;20196;-68